createdAt,value
2022-11-29T06:59:35.625Z,9.31
2022-11-29T07:02:11.696Z,9.36
2022-11-29T07:04:45.398Z,9.40
2022-11-29T07:07:17.975Z,9.39
2022-11-29T07:09:46.849Z,9.41
2022-11-29T07:12:13.828Z,9.45
2022-11-29T07:14:40.517Z,9.42
2022-11-29T07:17:24.734Z,9.40
2022-11-29T07:19:54.143Z,9.38
2022-11-29T07:22:39.300Z,9.43
2022-11-29T07:25:17.953Z,9.44
2022-11-29T07:27:58.571Z,9.50
2022-11-29T07:30:45.688Z,9.52
2022-11-29T07:33:30.887Z,9.54
2022-11-29T07:36:11.894Z,9.57
2022-11-29T07:38:48.162Z,9.59
2022-11-29T07:41:19.233Z,9.60
2022-11-29T07:44:07.510Z,9.64
2022-11-29T07:46:33.969Z,9.65
2022-11-29T07:49:00.412Z,9.71
2022-11-29T07:51:26.865Z,9.65
2022-11-29T07:53:53.901Z,9.68
2022-11-29T07:56:21.238Z,9.71
2022-11-29T07:58:47.889Z,9.74
2022-11-29T08:01:14.402Z,9.72
2022-11-29T08:03:42.271Z,9.73
2022-11-29T08:06:08.913Z,9.77
2022-11-29T08:08:39.217Z,9.82
2022-11-29T08:11:13.489Z,9.85
2022-11-29T08:13:39.905Z,9.88
2022-11-29T08:16:06.607Z,9.91
2022-11-29T08:18:33.124Z,9.89
2022-11-29T08:21:04.840Z,9.89
2022-11-29T08:23:31.232Z,9.92
2022-11-29T08:26:02.035Z,9.98
2022-11-29T08:28:28.853Z,9.99
2022-11-29T08:31:07.637Z,10.01
2022-11-29T08:33:42.675Z,10.04
2022-11-29T08:36:13.497Z,10.00
2022-11-29T08:38:40.047Z,9.94
2022-11-29T08:41:10.706Z,9.95
2022-11-29T08:43:37.202Z,9.91
2022-11-29T08:46:03.980Z,9.94
2022-11-29T08:48:30.512Z,10.00
2022-11-29T08:50:57.804Z,10.05
2022-11-29T08:53:43.153Z,10.09
2022-11-29T08:57:04.385Z,10.09
2022-11-29T08:59:01.775Z,10.17
2022-11-29T09:01:29.308Z,10.03
2022-11-29T09:04:10.511Z,10.00
2022-11-29T09:06:39.220Z,10.07
2022-11-29T09:09:05.879Z,10.04
2022-11-29T09:11:34.367Z,10.06
2022-11-29T09:14:03.908Z,10.16
2022-11-29T09:16:34.218Z,10.17
2022-11-29T09:19:00.972Z,10.17
2022-11-29T09:21:30.014Z,10.13
2022-11-29T09:23:59.322Z,10.09
2022-11-29T09:26:29.466Z,10.10
2022-11-29T09:28:58.093Z,10.10
2022-11-29T09:31:24.593Z,10.08
2022-11-29T09:33:51.085Z,10.14
2022-11-29T09:36:17.551Z,10.24
2022-11-29T09:38:44.085Z,10.21
2022-11-29T09:41:39.274Z,10.26
2022-11-29T09:44:10.426Z,10.21
2022-11-29T09:47:29.104Z,10.15
2022-11-29T09:50:16.665Z,10.23
2022-11-29T09:53:02.037Z,10.24
2022-11-29T09:55:37.566Z,10.30
2022-11-29T09:58:09.924Z,10.37
2022-11-29T10:00:43.617Z,10.38
2022-11-29T10:03:31.811Z,10.36
2022-11-29T10:06:13.784Z,10.29
2022-11-29T10:08:53.956Z,10.32
2022-11-29T10:12:04.441Z,10.19
2022-11-29T10:14:48.782Z,10.10
2022-11-29T10:17:31.695Z,10.12
2022-11-29T10:20:17.431Z,10.09
2022-11-29T10:22:54.492Z,10.14
2022-11-29T10:25:28.393Z,10.24
2022-11-29T10:27:55.096Z,10.23
2022-11-29T10:30:22.147Z,10.22
2022-11-29T10:32:56.515Z,10.29
2022-11-29T10:35:23.194Z,10.35
2022-11-29T10:38:28.635Z,10.45
2022-11-29T10:40:47.132Z,10.49
2022-11-29T10:43:14.018Z,10.60
2022-11-29T10:45:50.053Z,10.67
2022-11-29T10:48:20.209Z,10.67
2022-11-29T10:50:49.751Z,10.71
2022-11-29T10:53:20.209Z,10.75
2022-11-29T10:56:31.098Z,10.63
2022-11-29T10:58:58.886Z,10.56
2022-11-29T11:01:28.901Z,10.55
2022-11-29T11:03:57.659Z,10.55
2022-11-29T11:06:43.239Z,10.66
2022-11-29T11:09:20.545Z,10.73
2022-11-29T11:11:52.957Z,10.72
2022-11-29T11:14:27.612Z,10.72
2022-11-29T11:16:54.820Z,10.78
2022-11-29T11:19:30.380Z,10.80
2022-11-29T11:21:59.372Z,10.62
2022-11-29T11:24:35.109Z,10.63
2022-11-29T11:27:02.403Z,10.66
2022-11-29T11:29:42.158Z,10.54
2022-11-29T11:32:17.577Z,10.46
2022-11-29T11:34:59.112Z,10.47
2022-11-29T11:37:30.180Z,10.39
2022-11-29T11:40:18.354Z,10.39
2022-11-29T11:42:45.265Z,10.43
2022-11-29T11:45:11.645Z,10.43
2022-11-29T11:47:44.782Z,10.40
2022-11-29T11:50:18.058Z,10.29
2022-11-29T11:52:53.297Z,10.32
2022-11-29T11:55:22.618Z,10.34
2022-11-29T11:58:10.323Z,10.39
2022-11-29T12:01:06.051Z,10.46
2022-11-29T12:03:38.867Z,10.50
2022-11-29T12:06:20.465Z,10.51
2022-11-29T12:08:48.349Z,10.46
2022-11-29T12:11:17.339Z,10.47
2022-11-29T12:13:49.747Z,10.51
2022-11-29T12:16:27.401Z,10.56
2022-11-29T12:19:12.016Z,10.64
2022-11-29T12:21:43.715Z,10.65
2022-11-29T12:24:35.474Z,10.60
2022-11-29T12:27:05.221Z,10.63
2022-11-29T12:29:34.348Z,10.64
2022-11-29T12:32:46.373Z,10.68
2022-11-29T12:35:36.588Z,10.68
2022-11-29T12:38:17.861Z,10.62
2022-11-29T12:40:58.604Z,10.64
2022-11-29T12:43:44.159Z,10.73
2022-11-29T12:46:27.786Z,10.82
2022-11-29T12:49:12.285Z,10.87
2022-11-29T12:52:00.690Z,10.95
2022-11-29T12:54:32.546Z,11.04
2022-11-29T12:57:18.799Z,11.04
2022-11-29T13:00:18.877Z,10.97
2022-11-29T13:02:58.712Z,10.84
2022-11-29T13:05:41.589Z,10.84
2022-11-29T13:08:11.095Z,10.84
2022-11-29T13:10:43.486Z,10.91
2022-11-29T13:13:34.618Z,11.00
2022-11-29T13:16:21.255Z,11.00
2022-11-29T13:19:25.246Z,11.09
2022-11-29T13:22:03.926Z,11.26
2022-11-29T13:24:49.499Z,11.36
2022-11-29T13:27:22.309Z,11.35
2022-11-29T13:29:49.310Z,11.29
2022-11-29T13:32:29.741Z,11.26
2022-11-29T13:35:00.721Z,11.28
2022-11-29T13:37:40.318Z,11.37
2022-11-29T13:40:37.204Z,11.46
2022-11-29T13:43:03.585Z,11.44
2022-11-29T13:45:49.141Z,11.35
2022-11-29T13:48:37.021Z,11.35
2022-11-29T13:51:29.491Z,11.32
2022-11-29T13:53:59.992Z,11.30
2022-11-29T13:56:26.485Z,11.32
2022-11-29T13:58:54.386Z,11.27
2022-11-29T14:01:22.484Z,11.14
2022-11-29T14:04:12.373Z,11.11
2022-11-29T14:06:39.193Z,11.06
2022-11-29T14:09:26.769Z,11.08
2022-11-29T14:12:17.939Z,11.01
2022-11-29T14:14:57.021Z,10.91
2022-11-29T14:17:48.962Z,10.86
2022-11-29T14:20:30.501Z,10.83
2022-11-29T14:23:05.976Z,10.81
2022-11-29T14:26:02.422Z,10.74
2022-11-29T14:28:32.857Z,10.65
2022-11-29T14:31:01.803Z,10.61
2022-11-29T14:33:32.746Z,10.56
2022-11-29T14:36:14.387Z,10.55
2022-11-29T14:39:22.630Z,10.56
2022-11-29T14:42:01.073Z,10.49
2022-11-29T14:44:30.644Z,10.41
2022-11-29T14:47:06.203Z,10.41
2022-11-29T14:49:43.470Z,10.34
2022-11-29T14:52:20.160Z,10.32
2022-11-29T14:54:59.039Z,10.33
2022-11-29T14:58:06.350Z,10.23
2022-11-29T15:00:32.831Z,10.22
2022-11-29T15:03:21.316Z,10.23
2022-11-29T15:06:09.852Z,10.15
2022-11-29T15:09:02.298Z,10.11
2022-11-29T15:11:53.015Z,10.09
2022-11-29T15:14:28.531Z,10.07
2022-11-29T15:17:09.380Z,9.99
2022-11-29T15:20:00.347Z,9.96
2022-11-29T15:22:39.283Z,9.94
2022-11-29T15:25:13.739Z,9.93
2022-11-29T15:27:58.041Z,9.92
2022-11-29T15:30:30.969Z,9.92
2022-11-29T15:32:59.599Z,9.93
2022-11-29T15:35:26.777Z,9.91
2022-11-29T15:37:54.164Z,9.88
2022-11-29T15:40:33.057Z,9.89
2022-11-29T15:43:29.060Z,9.88
2022-11-29T15:46:33.220Z,9.82
2022-11-29T15:49:34.370Z,9.83
2022-11-29T15:52:20.371Z,9.81
2022-11-29T16:02:21.571Z,9.77
2022-11-29T16:30:12.347Z,9.69
2022-11-29T16:34:01.883Z,9.69
2022-11-29T16:53:30.770Z,9.72
2022-11-29T17:04:03.011Z,9.71
2022-11-29T17:07:02.373Z,9.75
2022-11-29T17:10:26.008Z,9.76
2022-11-29T17:12:52.808Z,9.75
2022-11-29T17:15:19.296Z,9.80
2022-11-29T17:17:45.853Z,9.86
2022-11-29T17:20:15.583Z,9.88
2022-11-29T17:22:42.151Z,9.87
2022-11-29T17:25:09.660Z,9.87
2022-11-29T17:27:38.763Z,9.83
2022-11-29T17:30:06.660Z,9.82
2022-11-29T17:32:39.069Z,9.77
2022-11-29T17:35:07.430Z,9.78
2022-11-29T17:37:38.121Z,9.77
2022-11-29T17:40:05.386Z,9.80
2022-11-29T17:42:31.836Z,9.80
2022-11-29T17:44:58.298Z,9.78
2022-11-29T17:47:24.817Z,9.80
2022-11-29T17:49:51.573Z,9.78
2022-11-29T17:52:19.628Z,9.78
2022-11-29T17:54:46.065Z,9.81
2022-11-29T17:57:15.938Z,9.75
2022-11-29T17:59:42.561Z,9.73
2022-11-29T18:02:12.312Z,9.68
2022-11-29T18:04:42.324Z,9.67
2022-11-29T18:07:11.063Z,9.67
2022-11-29T18:09:37.561Z,9.68
2022-11-29T18:12:08.698Z,9.63
2022-11-29T18:14:46.564Z,9.59
2022-11-29T18:17:16.799Z,9.57
2022-11-29T18:19:43.506Z,9.52
2022-11-29T18:22:10.115Z,9.52
2022-11-29T18:24:36.724Z,9.57
2022-11-29T18:27:03.403Z,9.56
2022-11-29T18:29:34.266Z,9.54
2022-11-29T18:32:08.414Z,9.52
2022-11-29T18:34:35.256Z,9.56
2022-11-29T18:37:02.176Z,9.55
2022-11-29T18:39:29.697Z,9.52
2022-11-29T18:41:56.241Z,9.53
2022-11-29T18:44:29.191Z,9.57
2022-11-29T18:49:42.031Z,9.58
2022-11-29T18:52:12.244Z,9.55
2022-11-29T18:57:30.074Z,9.60
2022-11-29T19:00:18.295Z,9.58
2022-11-29T19:02:47.745Z,9.57
2022-11-29T19:05:24.668Z,9.60
2022-11-29T19:07:54.652Z,9.59
2022-11-29T19:10:25.131Z,9.55
2022-11-29T19:12:51.807Z,9.53
2022-11-29T19:15:25.659Z,9.55
2022-11-29T19:18:01.891Z,9.52
2022-11-29T19:20:28.526Z,9.46
2022-11-29T19:23:16.017Z,9.47
2022-11-29T19:25:45.844Z,9.41
2022-11-29T19:28:18.843Z,9.37
2022-11-29T19:30:54.152Z,9.33
2022-11-29T19:33:23.373Z,9.30
2022-11-29T19:35:50.183Z,9.27
2022-11-29T19:38:16.997Z,9.21
2022-11-29T19:40:43.565Z,9.20
2022-11-29T19:43:13.396Z,9.21
2022-11-29T19:45:40.704Z,9.17
2022-11-29T19:48:07.747Z,9.18
2022-11-29T19:50:34.400Z,9.19
2022-11-29T19:53:01.009Z,9.19
2022-11-29T19:55:57.562Z,9.23
2022-11-29T19:58:49.419Z,9.22
2022-11-29T20:01:49.391Z,9.20
2022-11-29T20:04:22.922Z,9.24
2022-11-29T20:06:58.868Z,9.30
2022-11-29T20:09:34.366Z,9.33
2022-11-29T20:20:05.893Z,9.28
2022-11-29T20:22:38.217Z,9.31
2022-11-29T20:33:02.383Z,9.30
2022-11-29T20:39:57.140Z,9.35
2022-11-29T20:43:04.962Z,9.29
2022-11-29T20:54:16.225Z,9.23
2022-11-29T21:04:10.865Z,9.20
2022-11-29T21:07:22.916Z,9.18
2022-11-29T21:19:22.893Z,9.03
2022-11-29T21:25:27.221Z,8.96
2022-11-29T21:27:55.128Z,8.97
2022-11-29T21:30:23.909Z,8.99
2022-11-29T21:32:50.951Z,8.98
2022-11-29T21:35:19.609Z,9.01
2022-11-29T21:37:46.471Z,9.05
2022-11-29T21:40:14.335Z,9.05
2022-11-29T21:42:41.146Z,9.05
2022-11-29T21:45:13.420Z,9.06
2022-11-29T21:47:42.571Z,9.06
2022-11-29T21:50:12.791Z,9.07
2022-11-29T21:52:39.930Z,9.12
2022-11-29T21:55:06.871Z,9.10
2022-11-29T21:57:33.435Z,9.05
2022-11-29T21:59:59.981Z,9.08
2022-11-29T22:02:29.353Z,9.04
2022-11-29T22:04:55.960Z,9.04
2022-11-29T22:07:22.556Z,9.04
2022-11-29T22:09:49.310Z,9.02
2022-11-29T22:12:33.294Z,9.05
2022-11-29T22:15:00.505Z,9.01
2022-11-29T22:17:26.986Z,9.05
2022-11-29T22:19:53.500Z,9.02
2022-11-29T22:22:22.219Z,8.99
2022-11-29T22:24:58.433Z,9.00
2022-11-29T22:27:24.934Z,8.98
2022-11-29T22:29:51.566Z,8.95
2022-11-29T22:32:18.159Z,9.02
2022-11-29T22:34:44.894Z,9.03
2022-11-29T22:37:12.574Z,9.03
2022-11-29T22:39:39.105Z,9.01
2022-11-29T22:42:05.631Z,9.03
2022-11-29T22:44:32.189Z,9.06
2022-11-29T22:46:58.772Z,9.10
2022-11-29T22:49:25.409Z,9.08
2022-11-29T22:51:52.410Z,9.12
2022-11-29T22:54:20.310Z,9.15
2022-11-29T22:56:47.368Z,9.10
2022-11-29T22:59:14.186Z,9.07
2022-11-29T23:01:41.805Z,9.05
2022-11-29T23:04:10.775Z,9.03
2022-11-29T23:06:41.192Z,9.08
2022-11-29T23:09:12.009Z,9.13
2022-11-29T23:11:39.075Z,9.10
2022-11-29T23:14:05.825Z,9.10
2022-11-29T23:16:33.059Z,9.05
2022-11-29T23:19:00.747Z,9.02
2022-11-29T23:21:35.513Z,9.01
2022-11-29T23:24:02.627Z,9.04
2022-11-29T23:26:33.929Z,9.02
2022-11-29T23:29:00.424Z,9.01
2022-11-29T23:31:27.081Z,9.00
2022-11-29T23:33:53.835Z,8.97
2022-11-29T23:36:20.615Z,8.98
2022-11-29T23:38:47.305Z,8.97
2022-11-29T23:41:22.369Z,8.95
2022-11-29T23:43:49.059Z,8.91
2022-11-29T23:46:18.080Z,8.93
2022-11-29T23:48:44.988Z,8.94
2022-11-29T23:51:12.343Z,8.93
2022-11-29T23:53:39.924Z,8.94
2022-11-29T23:56:10.337Z,9.00
2022-11-29T23:58:38.011Z,8.91
